createdAt,value
2019-02-11T00:01:39.695Z,0.70
2019-02-11T00:04:05.896Z,0.72
2019-02-11T00:06:31.994Z,0.88
2019-02-11T00:08:58.120Z,0.80
2019-02-11T00:11:24.279Z,0.50
2019-02-11T00:13:50.372Z,0.70
2019-02-11T00:16:16.536Z,0.78
2019-02-11T00:18:42.623Z,0.53
2019-02-11T00:21:08.686Z,0.75
2019-02-11T00:23:34.775Z,0.80
2019-02-11T00:26:00.840Z,0.90
2019-02-11T00:28:26.935Z,0.50
2019-02-11T00:30:53.005Z,0.60
2019-02-11T00:33:19.123Z,0.62
2019-02-11T00:35:45.191Z,0.62
2019-02-11T00:38:11.296Z,0.60
2019-02-11T00:40:37.360Z,0.60
2019-02-11T00:43:03.491Z,0.57
2019-02-11T00:45:30.487Z,0.60
2019-02-11T00:47:56.581Z,0.90
2019-02-11T00:50:22.652Z,0.60
2019-02-11T00:52:48.754Z,0.72
2019-02-11T00:55:14.844Z,0.57
2019-02-11T00:57:40.919Z,1.30
2019-02-11T01:00:09.841Z,0.65
2019-02-11T01:02:35.999Z,0.82
2019-02-11T01:05:03.300Z,0.50
2019-02-11T01:07:29.487Z,0.50
2019-02-11T01:09:55.575Z,1.00
2019-02-11T01:12:21.743Z,1.00
2019-02-11T01:14:47.828Z,0.60
2019-02-11T01:17:13.904Z,0.55
2019-02-11T01:19:39.995Z,0.50
2019-02-11T01:22:06.300Z,0.72
2019-02-11T01:24:32.399Z,0.50
2019-02-11T01:26:58.469Z,0.47
2019-02-11T01:29:24.531Z,0.70
2019-02-11T01:31:50.720Z,0.70
2019-02-11T01:34:16.820Z,0.98
2019-02-11T01:36:42.984Z,0.90
2019-02-11T01:39:09.071Z,0.70
2019-02-11T01:41:35.140Z,1.57
2019-02-11T01:44:01.229Z,1.17
2019-02-11T01:46:27.307Z,0.70
2019-02-11T01:48:53.393Z,1.15
2019-02-11T01:51:19.478Z,0.50
2019-02-11T01:53:45.663Z,0.47
2019-02-11T01:56:11.728Z,0.70
2019-02-11T01:58:37.796Z,0.57
2019-02-11T02:01:03.883Z,0.60
2019-02-11T02:03:29.967Z,0.50
2019-02-11T02:05:56.059Z,0.50
2019-02-11T02:08:22.146Z,0.50
2019-02-11T02:10:48.341Z,1.25
2019-02-11T02:13:14.422Z,0.50
2019-02-11T02:15:40.489Z,0.60
2019-02-11T02:18:06.594Z,0.80
2019-02-11T02:20:32.668Z,0.50
2019-02-11T02:22:58.737Z,0.62
2019-02-11T02:25:24.827Z,0.40
2019-02-11T02:27:50.905Z,0.60
2019-02-11T02:30:16.981Z,0.90
2019-02-11T02:32:43.070Z,0.65
2019-02-11T02:35:09.146Z,0.70
2019-02-11T02:37:35.223Z,1.70
2019-02-11T02:40:01.342Z,0.90
2019-02-11T02:42:27.400Z,0.88
2019-02-11T02:44:53.479Z,0.70
2019-02-11T02:47:19.572Z,0.70
2019-02-11T02:49:45.654Z,1.35
2019-02-11T02:52:11.744Z,1.15
2019-02-11T02:54:37.971Z,2.90
2019-02-11T02:57:04.039Z,2.72
2019-02-11T02:59:30.115Z,1.37
2019-02-11T03:01:56.198Z,1.45
2019-02-11T03:04:22.284Z,0.95
2019-02-11T03:06:48.379Z,2.25
2019-02-11T03:09:14.468Z,1.75
2019-02-11T03:11:40.560Z,1.22
2019-02-11T03:14:06.673Z,1.82
2019-02-11T03:16:32.826Z,1.30
2019-02-11T03:18:58.899Z,1.00
2019-02-11T03:21:24.992Z,1.25
2019-02-11T03:23:51.095Z,1.05
2019-02-11T03:26:17.264Z,1.20
2019-02-11T03:28:43.334Z,1.47
2019-02-11T03:31:09.434Z,1.30
2019-02-11T03:33:35.511Z,1.37
2019-02-11T03:36:01.590Z,0.88
2019-02-11T03:38:27.672Z,1.00
2019-02-11T03:40:53.741Z,1.37
2019-02-11T03:43:19.908Z,1.35
2019-02-11T03:45:46.012Z,1.50
2019-02-11T03:48:12.100Z,1.55
2019-02-11T03:50:38.201Z,1.00
2019-02-11T03:53:04.263Z,1.40
2019-02-11T03:55:30.344Z,1.60
2019-02-11T03:57:56.408Z,1.10
2019-02-11T04:00:22.496Z,1.35
2019-02-11T04:02:48.683Z,1.40
2019-02-11T04:05:14.743Z,1.12
2019-02-11T04:07:40.834Z,1.10
2019-02-11T04:10:08.851Z,1.00
2019-02-11T04:12:35.021Z,0.90
2019-02-11T04:15:01.186Z,1.02
2019-02-11T04:17:27.270Z,1.00
2019-02-11T04:19:53.340Z,1.20
2019-02-11T04:22:19.423Z,0.82
2019-02-11T04:24:46.018Z,1.05
2019-02-11T04:27:12.110Z,1.50
2019-02-11T04:29:38.193Z,0.88
2019-02-11T04:32:04.274Z,1.17
2019-02-11T04:34:30.347Z,1.12
2019-02-11T04:36:56.424Z,0.78
2019-02-11T04:39:22.515Z,1.30
2019-02-11T04:41:48.590Z,1.60
2019-02-11T04:44:14.675Z,1.12
2019-02-11T04:46:40.830Z,1.15
2019-02-11T04:49:06.901Z,1.02
2019-02-11T04:51:33.018Z,2.55
2019-02-11T04:53:59.111Z,0.98
2019-02-11T04:56:25.191Z,1.02
2019-02-11T04:58:51.255Z,1.30
2019-02-11T05:01:17.328Z,0.70
2019-02-11T05:03:43.416Z,1.30
2019-02-11T05:06:09.493Z,0.90
2019-02-11T05:08:35.568Z,0.80
2019-02-11T05:11:01.640Z,0.60
2019-02-11T05:13:27.725Z,0.60
2019-02-11T05:15:53.799Z,1.05
2019-02-11T05:18:19.980Z,0.93
2019-02-11T05:20:46.055Z,1.20
2019-02-11T05:23:12.149Z,1.15
2019-02-11T05:25:38.321Z,1.07
2019-02-11T05:28:04.491Z,1.10
2019-02-11T05:30:30.569Z,1.00
2019-02-11T05:32:56.706Z,1.00
2019-02-11T05:35:22.853Z,0.68
2019-02-11T05:37:48.938Z,1.20
2019-02-11T05:40:15.015Z,1.10
2019-02-11T05:42:41.187Z,1.00
2019-02-11T05:45:07.451Z,1.15
2019-02-11T05:47:33.539Z,1.30
2019-02-11T05:49:59.635Z,0.80
2019-02-11T05:52:25.734Z,1.05
2019-02-11T05:54:54.868Z,1.07
2019-02-11T05:57:21.145Z,1.37
2019-02-11T05:59:47.296Z,0.72
2019-02-11T06:02:15.283Z,0.55
2019-02-11T06:04:41.358Z,1.07
2019-02-11T06:07:07.433Z,0.82
2019-02-11T06:09:33.822Z,0.90
2019-02-11T06:11:59.976Z,0.53
2019-02-11T06:14:26.055Z,0.90
2019-02-11T06:16:52.128Z,1.15
2019-02-11T06:19:18.220Z,2.08
2019-02-11T06:21:44.286Z,1.35
2019-02-11T06:24:10.420Z,1.50
2019-02-11T06:26:36.583Z,1.57
2019-02-11T06:29:02.673Z,1.12
2019-02-11T06:31:28.747Z,1.25
2019-02-11T06:33:54.828Z,1.25
2019-02-11T06:36:20.912Z,1.37
2019-02-11T06:38:46.991Z,1.80
2019-02-11T06:41:13.054Z,1.40
2019-02-11T06:43:39.136Z,1.10
2019-02-11T06:46:05.197Z,2.10
2019-02-11T06:48:31.283Z,1.57
2019-02-11T06:50:57.368Z,1.82
2019-02-11T06:53:23.451Z,1.82
2019-02-11T06:55:49.524Z,1.80
2019-02-11T06:58:15.603Z,2.00
2019-02-11T07:00:41.675Z,0.80
2019-02-11T07:03:15.053Z,1.10
2019-02-11T07:05:41.217Z,0.85
2019-02-11T07:08:08.043Z,1.60
2019-02-11T07:10:34.391Z,1.30
2019-02-11T07:13:00.460Z,1.70
2019-02-11T07:15:26.558Z,1.65
2019-02-11T07:17:52.619Z,1.47
2019-02-11T07:20:18.716Z,2.27
2019-02-11T07:22:44.787Z,0.90
2019-02-11T07:25:10.988Z,1.98
2019-02-11T07:27:37.067Z,2.33
2019-02-11T07:30:06.531Z,1.35
2019-02-11T07:32:32.615Z,1.47
2019-02-11T07:34:58.684Z,2.70
2019-02-11T07:37:24.777Z,1.55
2019-02-11T07:39:50.851Z,1.98
2019-02-11T07:42:18.839Z,2.60
2019-02-11T07:44:46.809Z,1.87
2019-02-11T07:47:12.900Z,1.65
2019-02-11T07:49:38.972Z,2.02
2019-02-11T07:52:05.067Z,3.02
2019-02-11T07:54:31.142Z,2.17
2019-02-11T07:56:57.222Z,1.60
2019-02-11T07:59:23.296Z,2.55
2019-02-11T08:01:49.365Z,1.87
2019-02-11T08:04:15.458Z,1.00
2019-02-11T08:06:41.527Z,1.35
2019-02-11T08:09:09.527Z,1.05
2019-02-11T08:11:35.611Z,1.27
2019-02-11T08:14:01.708Z,2.47
2019-02-11T08:16:27.772Z,1.40
2019-02-11T08:18:53.867Z,1.57
2019-02-11T08:21:19.936Z,2.75
2019-02-11T08:23:46.015Z,1.92
2019-02-11T08:26:12.201Z,2.20
2019-02-11T08:28:38.288Z,1.70
2019-02-11T08:31:04.953Z,2.35
2019-02-11T08:33:31.059Z,1.70
2019-02-11T08:35:57.259Z,2.15
2019-02-11T08:38:23.328Z,1.55
2019-02-11T08:40:49.412Z,2.20
2019-02-11T08:43:15.494Z,1.35
2019-02-11T08:45:46.852Z,1.77
2019-02-11T08:48:09.575Z,2.27
2019-02-11T08:50:35.660Z,2.60
2019-02-11T08:53:01.868Z,3.05
2019-02-11T08:55:27.961Z,2.25
2019-02-11T08:57:54.024Z,1.80
2019-02-11T09:00:20.219Z,1.57
2019-02-11T09:02:46.279Z,1.72
2019-02-11T09:05:12.567Z,2.33
2019-02-11T09:07:38.637Z,1.60
2019-02-11T09:10:08.173Z,1.20
2019-02-11T09:12:34.240Z,1.17
2019-02-11T09:15:00.342Z,1.80
2019-02-11T09:17:26.426Z,1.10
2019-02-11T09:19:52.491Z,1.35
2019-02-11T09:22:18.577Z,1.60
2019-02-11T09:24:44.640Z,1.57
2019-02-11T09:27:10.731Z,2.62
2019-02-11T09:29:36.807Z,2.50
2019-02-11T09:32:03.014Z,1.95
2019-02-11T09:34:29.106Z,1.25
2019-02-11T09:36:55.282Z,3.00
2019-02-11T09:39:21.479Z,2.37
2019-02-11T09:41:47.549Z,1.85
2019-02-11T09:44:13.655Z,1.02
2019-02-11T09:46:39.731Z,1.77
2019-02-11T09:49:05.820Z,2.83
2019-02-11T09:51:33.883Z,1.92
2019-02-11T09:53:59.977Z,2.17
2019-02-11T09:56:26.170Z,2.58
2019-02-11T09:58:52.343Z,1.67
2019-02-11T10:01:18.423Z,2.02
2019-02-11T10:03:44.496Z,2.33
2019-02-11T10:06:10.618Z,2.05
2019-02-11T10:08:36.804Z,2.02
2019-02-11T10:11:03.023Z,2.12
2019-02-11T10:13:29.103Z,2.08
2019-02-11T10:15:55.193Z,2.95
2019-02-11T10:18:21.272Z,2.67
2019-02-11T10:20:47.382Z,2.15
2019-02-11T10:23:13.549Z,3.67
2019-02-11T10:25:39.738Z,3.25
2019-02-11T10:28:08.207Z,1.98
2019-02-11T10:30:34.308Z,2.62
2019-02-11T10:33:00.413Z,2.65
2019-02-11T10:35:26.583Z,1.75
2019-02-11T10:37:52.681Z,1.00
2019-02-11T10:40:18.756Z,3.15
2019-02-11T10:42:44.826Z,2.10
2019-02-11T10:45:12.847Z,3.25
2019-02-11T10:47:40.835Z,1.87
2019-02-11T10:50:09.932Z,1.45
2019-02-11T10:52:36.004Z,3.10
2019-02-11T10:55:02.308Z,2.80
2019-02-11T10:57:28.372Z,2.52
2019-02-11T10:59:54.443Z,2.75
2019-02-11T11:02:20.548Z,2.15
2019-02-11T11:04:46.615Z,2.00
2019-02-11T11:07:12.790Z,2.30
2019-02-11T11:09:38.868Z,3.70
2019-02-11T11:12:05.047Z,2.42
2019-02-11T11:14:31.139Z,1.98
2019-02-11T11:16:57.314Z,2.45
2019-02-11T11:19:23.396Z,1.70
2019-02-11T11:21:49.511Z,1.95
2019-02-11T11:24:15.767Z,3.60
2019-02-11T11:26:41.852Z,2.50
2019-02-11T11:29:07.965Z,2.50
2019-02-11T11:31:34.042Z,3.22
2019-02-11T11:34:00.147Z,1.60
2019-02-11T11:36:26.360Z,2.15
2019-02-11T11:38:52.619Z,2.20
2019-02-11T11:41:18.798Z,2.52
2019-02-11T11:43:44.900Z,2.20
2019-02-11T11:46:10.982Z,2.42
2019-02-11T11:48:37.051Z,2.50
2019-02-11T11:51:03.148Z,2.70
2019-02-11T11:53:29.224Z,2.83
2019-02-11T11:55:55.398Z,2.72
2019-02-11T11:58:21.486Z,2.90
2019-02-11T12:00:47.666Z,2.70
2019-02-11T12:03:14.062Z,2.72
2019-02-11T12:05:40.352Z,2.42
2019-02-11T12:08:06.439Z,3.52
2019-02-11T12:10:33.048Z,1.95
2019-02-11T12:12:59.251Z,3.00
2019-02-11T12:15:25.927Z,2.70
2019-02-11T12:17:52.190Z,3.45
2019-02-11T12:20:18.410Z,3.20
2019-02-11T12:22:44.548Z,3.25
2019-02-11T12:25:30.637Z,2.83
2019-02-11T12:27:56.810Z,3.05
2019-02-11T12:30:24.459Z,4.35
2019-02-11T12:32:54.341Z,2.25
2019-02-11T12:35:18.724Z,2.75
2019-02-11T12:37:44.888Z,2.77
2019-02-11T12:40:11.155Z,2.40
2019-02-11T12:42:37.254Z,2.58
2019-02-11T12:45:07.143Z,2.90
2019-02-11T12:47:33.223Z,2.52
2019-02-11T12:49:59.421Z,2.33
2019-02-11T12:52:25.504Z,2.42
2019-02-11T12:54:51.702Z,2.08
2019-02-11T12:57:17.819Z,2.62
2019-02-11T12:59:43.935Z,3.15
2019-02-11T13:02:10.135Z,2.70
2019-02-11T13:04:36.298Z,2.90
2019-02-11T13:07:02.440Z,3.20
2019-02-11T13:09:28.569Z,2.15
2019-02-11T13:11:54.778Z,2.85
2019-02-11T13:14:20.853Z,2.00
2019-02-11T13:16:47.042Z,2.75
2019-02-11T13:19:13.197Z,2.40
2019-02-11T13:21:39.266Z,2.22
2019-02-11T13:24:05.380Z,3.40
2019-02-11T13:26:31.551Z,1.60
2019-02-11T13:28:57.745Z,1.70
2019-02-11T13:31:23.808Z,2.77
2019-02-11T13:33:50.000Z,2.15
2019-02-11T13:36:16.167Z,2.52
2019-02-11T13:38:42.356Z,3.00
2019-02-11T13:41:08.530Z,2.40
2019-02-11T13:43:34.724Z,2.37
2019-02-11T13:46:20.687Z,3.30
2019-02-11T13:48:47.810Z,3.67
2019-02-11T13:51:13.985Z,1.98
2019-02-11T13:53:43.539Z,2.30
2019-02-11T13:56:08.252Z,1.30
2019-02-11T13:58:34.427Z,3.40
2019-02-11T14:01:00.696Z,3.05
2019-02-11T14:03:26.849Z,3.50
2019-02-11T14:05:52.940Z,3.00
2019-02-11T14:08:19.111Z,3.72
2019-02-11T14:10:45.170Z,2.77
2019-02-11T14:13:12.052Z,3.50
2019-02-11T14:15:38.222Z,1.70
2019-02-11T14:18:13.106Z,2.72
2019-02-11T14:20:35.177Z,2.05
2019-02-11T14:23:01.568Z,2.30
2019-02-11T14:25:42.022Z,1.75
2019-02-11T14:27:55.692Z,2.50
2019-02-11T14:30:21.892Z,2.22
2019-02-11T14:32:48.058Z,1.70
2019-02-11T14:35:15.040Z,2.10
2019-02-11T14:37:41.117Z,2.50
2019-02-11T14:40:09.267Z,2.47
2019-02-11T14:42:35.365Z,1.65
2019-02-11T14:45:03.828Z,2.10
2019-02-11T14:47:30.006Z,1.35
2019-02-11T14:49:56.172Z,1.60
2019-02-11T14:52:22.348Z,2.15
2019-02-11T14:54:48.413Z,1.70
2019-02-11T14:57:14.591Z,2.02
2019-02-11T14:59:40.656Z,1.70
2019-02-11T15:02:06.740Z,1.30
2019-02-11T15:04:32.800Z,1.70
2019-02-11T15:06:58.896Z,1.05
2019-02-11T15:09:24.954Z,2.27
2019-02-11T15:11:51.046Z,1.52
2019-02-11T15:14:17.127Z,2.00
2019-02-11T15:16:43.199Z,0.90
2019-02-11T15:19:09.575Z,1.72
2019-02-11T15:21:35.640Z,0.90
2019-02-11T15:24:01.723Z,1.50
2019-02-11T15:26:27.814Z,1.22
2019-02-11T15:28:53.892Z,1.47
2019-02-11T15:31:19.977Z,1.30
2019-02-11T15:33:46.035Z,3.80
2019-02-11T15:36:12.128Z,4.08
2019-02-11T15:38:38.187Z,5.87
2019-02-11T15:41:04.259Z,1.32
2019-02-11T15:43:30.338Z,1.17
2019-02-11T15:45:56.405Z,1.75
2019-02-11T15:48:22.515Z,1.57
2019-02-11T15:50:48.600Z,0.88
2019-02-11T15:53:14.771Z,1.47
2019-02-11T15:55:40.856Z,1.77
2019-02-11T15:58:06.932Z,1.15
2019-02-11T16:00:33.124Z,1.32
2019-02-11T16:02:59.191Z,1.60
2019-02-11T16:05:25.255Z,1.27
2019-02-11T16:07:51.444Z,1.95
2019-02-11T16:10:23.592Z,9.30
2019-02-11T16:12:49.830Z,2.60
2019-02-11T16:15:15.947Z,1.90
2019-02-11T16:17:42.012Z,1.87
2019-02-11T16:20:10.291Z,3.22
2019-02-11T16:22:36.480Z,3.02
2019-02-11T16:25:03.949Z,1.55
2019-02-11T16:27:30.036Z,3.45
2019-02-11T16:29:56.124Z,2.87
2019-02-11T16:32:22.187Z,1.25
2019-02-11T16:34:48.271Z,1.05
2019-02-11T16:37:14.330Z,1.37
2019-02-11T16:39:40.408Z,2.00
2019-02-11T16:42:06.492Z,1.67
2019-02-11T16:44:32.561Z,1.50
2019-02-11T16:46:58.636Z,2.75
2019-02-11T16:49:24.818Z,1.05
2019-02-11T16:51:50.884Z,2.47
2019-02-11T16:54:16.960Z,1.60
2019-02-11T16:56:43.047Z,1.60
2019-02-11T16:59:09.123Z,2.27
2019-02-11T17:01:35.203Z,4.80
2019-02-11T17:04:01.276Z,2.15
2019-02-11T17:06:27.358Z,3.75
2019-02-11T17:08:53.510Z,2.85
2019-02-11T17:11:19.594Z,2.80
2019-02-11T17:13:45.659Z,10.88
2019-02-11T17:16:11.744Z,4.85
2019-02-11T17:18:37.814Z,5.08
2019-02-11T17:21:03.903Z,4.20
2019-02-11T17:23:29.978Z,3.15
2019-02-11T17:25:56.080Z,1.62
2019-02-11T17:28:22.175Z,3.60
2019-02-11T17:30:48.752Z,4.78
2019-02-11T17:33:14.844Z,3.00
2019-02-11T17:35:40.932Z,2.05
2019-02-11T17:38:07.025Z,5.53
2019-02-11T17:40:33.102Z,3.87
2019-02-11T17:42:59.166Z,5.10
2019-02-11T17:45:26.854Z,4.15
2019-02-11T17:47:52.940Z,1.45
2019-02-11T17:50:19.049Z,2.15
2019-02-11T17:52:45.112Z,2.67
2019-02-11T17:55:12.902Z,1.30
2019-02-11T17:57:38.970Z,1.20
2019-02-11T18:00:09.070Z,2.40
2019-02-11T18:02:35.136Z,2.60
2019-02-11T18:05:01.203Z,2.22
2019-02-11T18:07:27.380Z,2.22
2019-02-11T18:09:53.447Z,2.05
2019-02-11T18:12:19.719Z,2.95
2019-02-11T18:14:45.802Z,3.75
2019-02-11T18:17:11.879Z,7.22
2019-02-11T18:19:37.948Z,5.25
2019-02-11T18:22:04.143Z,2.30
2019-02-11T18:24:30.345Z,2.08
2019-02-11T18:26:56.525Z,3.25
2019-02-11T18:29:22.725Z,2.83
2019-02-11T18:31:48.799Z,2.52
2019-02-11T18:34:14.871Z,1.40
2019-02-11T18:36:40.989Z,2.27
2019-02-11T18:39:07.654Z,1.65
2019-02-11T18:41:33.728Z,2.45
2019-02-11T18:43:59.927Z,2.85
2019-02-11T18:46:25.995Z,2.50
2019-02-11T18:48:52.075Z,3.55
2019-02-11T18:51:18.202Z,5.03
2019-02-11T18:53:44.273Z,3.75
2019-02-11T18:56:10.365Z,2.20
2019-02-11T18:58:36.535Z,2.25
2019-02-11T19:01:02.703Z,2.17
2019-02-11T19:03:28.763Z,2.77
2019-02-11T19:05:54.854Z,2.40
2019-02-11T19:08:21.008Z,2.20
2019-02-11T19:10:47.176Z,3.87
2019-02-11T19:13:13.271Z,2.33
2019-02-11T19:15:39.343Z,2.98
2019-02-11T19:18:05.553Z,2.00
2019-02-11T19:20:31.649Z,1.92
2019-02-11T19:22:57.723Z,3.75
2019-02-11T19:25:23.846Z,2.85
2019-02-11T19:27:49.929Z,2.40
2019-02-11T19:30:24.951Z,3.12
2019-02-11T19:32:51.052Z,2.22
2019-02-11T19:35:17.121Z,2.17
2019-02-11T19:37:43.197Z,3.72
2019-02-11T19:40:14.450Z,3.02
2019-02-11T19:42:40.535Z,2.80
2019-02-11T19:45:09.930Z,1.90
2019-02-11T19:47:36.078Z,2.80
2019-02-11T19:50:04.963Z,3.15
2019-02-11T19:52:31.079Z,3.65
2019-02-11T19:54:57.148Z,0.93
2019-02-11T19:57:23.220Z,2.70
2019-02-11T19:59:49.309Z,3.95
2019-02-11T20:02:15.370Z,3.17
2019-02-11T20:04:41.431Z,2.00
2019-02-11T20:07:07.611Z,2.62
2019-02-11T20:09:34.492Z,3.67
2019-02-11T20:12:02.451Z,2.90
2019-02-11T20:14:28.548Z,3.65
2019-02-11T20:16:57.628Z,3.45
2019-02-11T20:19:23.702Z,3.35
2019-02-11T20:21:49.807Z,3.05
2019-02-11T20:24:15.929Z,4.45
2019-02-11T20:26:42.084Z,1.65
2019-02-11T20:29:08.283Z,2.75
2019-02-11T20:31:34.396Z,4.75
2019-02-11T20:34:00.467Z,4.97
2019-02-11T20:36:26.557Z,4.37
2019-02-11T20:38:52.623Z,6.35
2019-02-11T20:41:18.740Z,3.67
2019-02-11T20:43:44.811Z,4.03
2019-02-11T20:46:10.996Z,5.65
2019-02-11T20:48:37.083Z,12.63
2019-02-11T20:51:03.208Z,4.40
2019-02-11T20:53:29.272Z,4.15
2019-02-11T20:55:55.360Z,4.47
2019-02-11T20:58:21.448Z,10.63
2019-02-11T21:00:47.536Z,6.05
2019-02-11T21:03:15.523Z,4.50
2019-02-11T21:05:41.630Z,4.67
2019-02-11T21:08:28.732Z,2.85
2019-02-11T21:10:54.832Z,5.75
2019-02-11T21:13:23.903Z,4.35
2019-02-11T21:15:49.983Z,9.45
2019-02-11T21:18:16.055Z,3.70
2019-02-11T21:20:44.151Z,3.42
2019-02-11T21:23:10.222Z,8.30
2019-02-11T21:25:36.405Z,2.65
2019-02-11T21:28:02.588Z,3.35
2019-02-11T21:30:28.678Z,3.50
2019-02-11T21:32:54.752Z,3.65
2019-02-11T21:35:20.836Z,2.55
2019-02-11T21:37:46.969Z,4.25
2019-02-11T21:40:13.122Z,4.20
2019-02-11T21:42:39.203Z,2.08
2019-02-11T21:45:08.136Z,3.35
2019-02-11T21:47:34.199Z,3.33
2019-02-11T21:50:00.374Z,3.70
2019-02-11T21:52:26.474Z,4.50
2019-02-11T21:54:52.632Z,5.65
2019-02-11T21:57:18.847Z,1.55
2019-02-11T21:59:44.920Z,6.50
2019-02-11T22:02:11.009Z,4.60
2019-02-11T22:04:37.072Z,4.78
2019-02-11T22:07:03.168Z,7.97
2019-02-11T22:09:29.255Z,5.20
2019-02-11T22:11:55.363Z,4.67
2019-02-11T22:14:21.466Z,5.00
2019-02-11T22:16:47.567Z,2.85
2019-02-11T22:19:13.643Z,3.30
2019-02-11T22:21:39.727Z,4.00
2019-02-11T22:24:05.930Z,4.95
2019-02-11T22:26:32.022Z,3.27
2019-02-11T22:28:58.175Z,3.00
2019-02-11T22:31:24.261Z,4.37
2019-02-11T22:33:50.427Z,3.83
2019-02-11T22:36:16.517Z,7.00
2019-02-11T22:38:42.592Z,6.60
2019-02-11T22:41:08.671Z,3.42
2019-02-11T22:43:34.734Z,6.62
2019-02-11T22:46:00.826Z,15.55
2019-02-11T22:48:27.003Z,4.33
2019-02-11T22:50:53.066Z,5.75
2019-02-11T22:53:19.153Z,5.37
2019-02-11T22:55:45.218Z,3.80
2019-02-11T22:58:11.313Z,2.98
2019-02-11T23:00:47.256Z,2.12
2019-02-11T23:03:13.855Z,4.92
2019-02-11T23:05:59.824Z,4.42
2019-02-11T23:08:25.932Z,3.95
2019-02-11T23:10:51.994Z,8.80
2019-02-11T23:13:18.068Z,18.77
2019-02-11T23:15:44.172Z,5.90
2019-02-11T23:18:10.333Z,4.80
2019-02-11T23:20:36.404Z,3.60
2019-02-11T23:23:02.495Z,4.85
2019-02-11T23:25:28.658Z,4.87
2019-02-11T23:27:54.762Z,7.28
2019-02-11T23:30:20.944Z,4.78
2019-02-11T23:32:47.035Z,3.85
2019-02-11T23:35:13.103Z,5.37
2019-02-11T23:37:39.188Z,3.65
2019-02-11T23:40:07.466Z,4.05
2019-02-11T23:42:33.565Z,3.33
2019-02-11T23:44:59.628Z,5.72
2019-02-11T23:47:25.716Z,5.55
2019-02-11T23:49:51.874Z,4.72
2019-02-11T23:52:18.052Z,4.97
2019-02-11T23:54:44.129Z,4.83
2019-02-11T23:57:10.223Z,4.33
2019-02-11T23:59:36.292Z,4.40
